sensor_id;sensor_type;location;lat;lon;timestamp;P1;durP1;ratioP1;P2;durP2;ratioP2
53765;SDS011;39682;51.490;7.310;2023-03-21T00:00:11;16.98;;;4.22;;
53765;SDS011;39682;51.490;7.310;2023-03-21T00:02:37;19.83;;;5.07;;
53765;SDS011;39682;51.490;7.310;2023-03-21T00:05:03;10.35;;;4.75;;
53765;SDS011;39682;51.490;7.310;2023-03-21T00:07:29;21.05;;;5.95;;
53765;SDS011;39682;51.490;7.310;2023-03-21T00:09:55;12.18;;;5.80;;
53765;SDS011;39682;51.490;7.310;2023-03-21T00:12:21;14.00;;;5.03;;
53765;SDS011;39682;51.490;7.310;2023-03-21T00:14:47;12.38;;;5.35;;
53765;SDS011;39682;51.490;7.310;2023-03-21T00:17:14;18.00;;;5.18;;
53765;SDS011;39682;51.490;7.310;2023-03-21T00:19:40;15.20;;;6.28;;
53765;SDS011;39682;51.490;7.310;2023-03-21T00:22:08;13.95;;;5.60;;
53765;SDS011;39682;51.490;7.310;2023-03-21T00:24:34;12.05;;;4.78;;
53765;SDS011;39682;51.490;7.310;2023-03-21T00:27:00;12.75;;;5.88;;
53765;SDS011;39682;51.490;7.310;2023-03-21T00:29:27;16.52;;;5.40;;
53765;SDS011;39682;51.490;7.310;2023-03-21T00:31:52;12.40;;;4.40;;
53765;SDS011;39682;51.490;7.310;2023-03-21T00:34:18;9.23;;;4.55;;
53765;SDS011;39682;51.490;7.310;2023-03-21T00:36:45;15.88;;;5.15;;
53765;SDS011;39682;51.490;7.310;2023-03-21T00:39:10;13.40;;;4.43;;
53765;SDS011;39682;51.490;7.310;2023-03-21T00:41:38;18.00;;;5.65;;
53765;SDS011;39682;51.490;7.310;2023-03-21T00:44:04;11.88;;;4.97;;
53765;SDS011;39682;51.490;7.310;2023-03-21T00:46:30;11.27;;;4.28;;
53765;SDS011;39682;51.490;7.310;2023-03-21T00:48:56;11.43;;;4.65;;
53765;SDS011;39682;51.490;7.310;2023-03-21T00:51:22;13.52;;;4.88;;
53765;SDS011;39682;51.490;7.310;2023-03-21T00:53:52;14.52;;;6.65;;
53765;SDS011;39682;51.490;7.310;2023-03-21T00:56:18;9.68;;;4.53;;
53765;SDS011;39682;51.490;7.310;2023-03-21T00:58:44;23.45;;;6.13;;
53765;SDS011;39682;51.490;7.310;2023-03-21T01:01:10;14.50;;;4.72;;
53765;SDS011;39682;51.490;7.310;2023-03-21T01:03:36;11.15;;;5.10;;
53765;SDS011;39682;51.490;7.310;2023-03-21T01:06:08;14.02;;;4.28;;
53765;SDS011;39682;51.490;7.310;2023-03-21T01:08:38;14.35;;;5.50;;
53765;SDS011;39682;51.490;7.310;2023-03-21T01:11:06;13.25;;;3.75;;
53765;SDS011;39682;51.490;7.310;2023-03-21T01:13:33;12.43;;;3.83;;
53765;SDS011;39682;51.490;7.310;2023-03-21T01:15:59;15.95;;;4.30;;
53765;SDS011;39682;51.490;7.310;2023-03-21T01:18:26;10.90;;;4.40;;
53765;SDS011;39682;51.490;7.310;2023-03-21T01:20:54;10.60;;;3.60;;
53765;SDS011;39682;51.490;7.310;2023-03-21T01:23:20;10.60;;;3.80;;
53765;SDS011;39682;51.490;7.310;2023-03-21T01:25:47;12.93;;;5.03;;
53765;SDS011;39682;51.490;7.310;2023-03-21T01:28:13;13.60;;;3.88;;
53765;SDS011;39682;51.490;7.310;2023-03-21T01:30:43;12.27;;;3.47;;
53765;SDS011;39682;51.490;7.310;2023-03-21T01:33:09;8.48;;;3.47;;
53765;SDS011;39682;51.490;7.310;2023-03-21T01:35:35;10.20;;;4.15;;
53765;SDS011;39682;51.490;7.310;2023-03-21T01:38:01;11.82;;;5.13;;
53765;SDS011;39682;51.490;7.310;2023-03-21T01:40:28;15.38;;;4.95;;
53765;SDS011;39682;51.490;7.310;2023-03-21T01:42:55;12.35;;;4.22;;
53765;SDS011;39682;51.490;7.310;2023-03-21T01:48:06;17.63;;;5.55;;
53765;SDS011;39682;51.490;7.310;2023-03-21T01:50:32;13.05;;;5.03;;
53765;SDS011;39682;51.490;7.310;2023-03-21T01:52:58;11.00;;;4.13;;
53765;SDS011;39682;51.490;7.310;2023-03-21T01:55:24;16.95;;;5.28;;
53765;SDS011;39682;51.490;7.310;2023-03-21T01:57:50;12.90;;;5.40;;
53765;SDS011;39682;51.490;7.310;2023-03-21T02:00:19;12.73;;;5.07;;
53765;SDS011;39682;51.490;7.310;2023-03-21T02:02:48;12.75;;;5.47;;
53765;SDS011;39682;51.490;7.310;2023-03-21T02:05:16;12.95;;;5.05;;
53765;SDS011;39682;51.490;7.310;2023-03-21T02:07:44;14.00;;;5.95;;
53765;SDS011;39682;51.490;7.310;2023-03-21T02:10:11;19.25;;;7.10;;
53765;SDS011;39682;51.490;7.310;2023-03-21T02:12:38;10.27;;;5.10;;
53765;SDS011;39682;51.490;7.310;2023-03-21T02:15:04;13.65;;;4.85;;
53765;SDS011;39682;51.490;7.310;2023-03-21T02:27:48;11.65;;;6.97;;
53765;SDS011;39682;51.490;7.310;2023-03-21T02:30:31;12.35;;;5.38;;
53765;SDS011;39682;51.490;7.310;2023-03-21T02:33:04;16.42;;;6.97;;
53765;SDS011;39682;51.490;7.310;2023-03-21T02:35:41;18.63;;;7.03;;
53765;SDS011;39682;51.490;7.310;2023-03-21T02:43:21;15.13;;;6.35;;
53765;SDS011;39682;51.490;7.310;2023-03-21T02:46:49;19.33;;;7.88;;
53765;SDS011;39682;51.490;7.310;2023-03-21T02:48:53;15.93;;;6.07;;
53765;SDS011;39682;51.490;7.310;2023-03-21T02:51:21;19.10;;;7.00;;
53765;SDS011;39682;51.490;7.310;2023-03-21T02:53:54;18.52;;;7.35;;
53765;SDS011;39682;51.490;7.310;2023-03-21T02:56:22;15.32;;;7.53;;
53765;SDS011;39682;51.490;7.310;2023-03-21T02:58:50;16.80;;;6.63;;
53765;SDS011;39682;51.490;7.310;2023-03-21T03:01:17;12.75;;;6.03;;
53765;SDS011;39682;51.490;7.310;2023-03-21T03:03:42;15.30;;;6.30;;
53765;SDS011;39682;51.490;7.310;2023-03-21T03:06:13;15.32;;;7.10;;
53765;SDS011;39682;51.490;7.310;2023-03-21T03:16:32;14.52;;;7.22;;
53765;SDS011;39682;51.490;7.310;2023-03-21T03:19:06;15.05;;;7.07;;
53765;SDS011;39682;51.490;7.310;2023-03-21T03:21:38;10.73;;;5.32;;
53765;SDS011;39682;51.490;7.310;2023-03-21T03:24:25;13.35;;;6.70;;
53765;SDS011;39682;51.490;7.310;2023-03-21T03:26:56;18.25;;;7.97;;
53765;SDS011;39682;51.490;7.310;2023-03-21T03:29:23;15.40;;;6.70;;
53765;SDS011;39682;51.490;7.310;2023-03-21T03:31:53;17.48;;;7.10;;
53765;SDS011;39682;51.490;7.310;2023-03-21T03:34:22;15.57;;;7.75;;
53765;SDS011;39682;51.490;7.310;2023-03-21T03:36:51;16.42;;;7.03;;
53765;SDS011;39682;51.490;7.310;2023-03-21T03:39:20;19.65;;;7.65;;
53765;SDS011;39682;51.490;7.310;2023-03-21T03:41:52;13.95;;;7.18;;
53765;SDS011;39682;51.490;7.310;2023-03-21T03:44:20;18.55;;;8.00;;
53765;SDS011;39682;51.490;7.310;2023-03-21T03:49:13;20.98;;;8.00;;
53765;SDS011;39682;51.490;7.310;2023-03-21T03:54:10;17.77;;;6.70;;
53765;SDS011;39682;51.490;7.310;2023-03-21T03:56:37;14.82;;;6.60;;
53765;SDS011;39682;51.490;7.310;2023-03-21T03:59:04;20.77;;;7.45;;
53765;SDS011;39682;51.490;7.310;2023-03-21T04:01:31;14.68;;;7.47;;
53765;SDS011;39682;51.490;7.310;2023-03-21T04:03:57;15.75;;;7.13;;
53765;SDS011;39682;51.490;7.310;2023-03-21T04:06:24;13.15;;;6.78;;
53765;SDS011;39682;51.490;7.310;2023-03-21T04:08:52;15.77;;;7.32;;
53765;SDS011;39682;51.490;7.310;2023-03-21T04:11:18;20.23;;;6.93;;
53765;SDS011;39682;51.490;7.310;2023-03-21T04:13:44;16.95;;;6.85;;
53765;SDS011;39682;51.490;7.310;2023-03-21T04:16:10;12.95;;;6.05;;
53765;SDS011;39682;51.490;7.310;2023-03-21T04:18:36;14.93;;;7.40;;
53765;SDS011;39682;51.490;7.310;2023-03-21T04:21:07;12.95;;;6.65;;
53765;SDS011;39682;51.490;7.310;2023-03-21T04:23:33;17.23;;;7.10;;
53765;SDS011;39682;51.490;7.310;2023-03-21T04:26:00;16.90;;;6.93;;
53765;SDS011;39682;51.490;7.310;2023-03-21T04:28:26;18.83;;;7.40;;
53765;SDS011;39682;51.490;7.310;2023-03-21T04:30:52;16.85;;;6.47;;
53765;SDS011;39682;51.490;7.310;2023-03-21T04:33:21;14.05;;;7.00;;
53765;SDS011;39682;51.490;7.310;2023-03-21T04:35:49;17.10;;;7.38;;
53765;SDS011;39682;51.490;7.310;2023-03-21T04:38:20;12.90;;;6.75;;
53765;SDS011;39682;51.490;7.310;2023-03-21T04:40:46;17.77;;;7.38;;
53765;SDS011;39682;51.490;7.310;2023-03-21T04:43:12;15.10;;;7.00;;
53765;SDS011;39682;51.490;7.310;2023-03-21T04:45:37;14.13;;;6.60;;
53765;SDS011;39682;51.490;7.310;2023-03-21T04:48:03;13.20;;;7.10;;
53765;SDS011;39682;51.490;7.310;2023-03-21T04:50:30;15.65;;;7.45;;
53765;SDS011;39682;51.490;7.310;2023-03-21T04:52:56;14.65;;;7.28;;
53765;SDS011;39682;51.490;7.310;2023-03-21T04:55:22;18.45;;;8.02;;
53765;SDS011;39682;51.490;7.310;2023-03-21T04:57:51;18.45;;;7.63;;
53765;SDS011;39682;51.490;7.310;2023-03-21T05:00:18;20.15;;;8.20;;
53765;SDS011;39682;51.490;7.310;2023-03-21T05:02:45;15.85;;;7.65;;
53765;SDS011;39682;51.490;7.310;2023-03-21T05:05:11;18.83;;;8.32;;
53765;SDS011;39682;51.490;7.310;2023-03-21T05:07:40;21.30;;;8.43;;
53765;SDS011;39682;51.490;7.310;2023-03-21T05:10:07;21.95;;;7.55;;
53765;SDS011;39682;51.490;7.310;2023-03-21T05:12:34;18.23;;;8.63;;
53765;SDS011;39682;51.490;7.310;2023-03-21T05:15:00;17.20;;;8.10;;
53765;SDS011;39682;51.490;7.310;2023-03-21T05:17:26;15.75;;;7.82;;
53765;SDS011;39682;51.490;7.310;2023-03-21T05:19:52;14.77;;;7.65;;
53765;SDS011;39682;51.490;7.310;2023-03-21T05:22:20;12.50;;;7.05;;
53765;SDS011;39682;51.490;7.310;2023-03-21T05:24:48;13.77;;;7.45;;
53765;SDS011;39682;51.490;7.310;2023-03-21T05:27:18;15.68;;;8.00;;
53765;SDS011;39682;51.490;7.310;2023-03-21T05:32:28;13.77;;;7.78;;
53765;SDS011;39682;51.490;7.310;2023-03-21T05:34:54;21.15;;;7.47;;
53765;SDS011;39682;51.490;7.310;2023-03-21T05:37:20;18.05;;;6.82;;
53765;SDS011;39682;51.490;7.310;2023-03-21T05:39:46;17.27;;;6.28;;
53765;SDS011;39682;51.490;7.310;2023-03-21T05:42:12;13.35;;;7.65;;
53765;SDS011;39682;51.490;7.310;2023-03-21T05:44:38;10.43;;;6.03;;
53765;SDS011;39682;51.490;7.310;2023-03-21T05:47:05;15.95;;;6.72;;
53765;SDS011;39682;51.490;7.310;2023-03-21T05:49:31;16.25;;;7.55;;
53765;SDS011;39682;51.490;7.310;2023-03-21T05:51:57;17.23;;;7.10;;
53765;SDS011;39682;51.490;7.310;2023-03-21T05:54:23;14.80;;;6.88;;
53765;SDS011;39682;51.490;7.310;2023-03-21T05:56:49;17.40;;;7.20;;
53765;SDS011;39682;51.490;7.310;2023-03-21T05:59:15;14.40;;;6.32;;
53765;SDS011;39682;51.490;7.310;2023-03-21T06:01:41;15.73;;;6.70;;
53765;SDS011;39682;51.490;7.310;2023-03-21T06:04:07;13.60;;;5.72;;
53765;SDS011;39682;51.490;7.310;2023-03-21T06:06:33;14.77;;;7.03;;
53765;SDS011;39682;51.490;7.310;2023-03-21T06:08:59;16.45;;;6.43;;
53765;SDS011;39682;51.490;7.310;2023-03-21T06:11:26;16.13;;;6.53;;
53765;SDS011;39682;51.490;7.310;2023-03-21T06:13:53;15.77;;;6.40;;
53765;SDS011;39682;51.490;7.310;2023-03-21T06:16:19;14.45;;;6.72;;
53765;SDS011;39682;51.490;7.310;2023-03-21T06:18:45;14.77;;;6.82;;
53765;SDS011;39682;51.490;7.310;2023-03-21T06:21:11;12.75;;;7.00;;
53765;SDS011;39682;51.490;7.310;2023-03-21T06:23:37;17.35;;;7.38;;
53765;SDS011;39682;51.490;7.310;2023-03-21T06:26:03;13.68;;;5.53;;
53765;SDS011;39682;51.490;7.310;2023-03-21T06:28:30;19.17;;;7.20;;
53765;SDS011;39682;51.490;7.310;2023-03-21T06:30:56;18.15;;;7.65;;
53765;SDS011;39682;51.490;7.310;2023-03-21T06:33:22;18.75;;;7.30;;
53765;SDS011;39682;51.490;7.310;2023-03-21T06:35:54;16.17;;;6.28;;
53765;SDS011;39682;51.490;7.310;2023-03-21T06:38:20;17.83;;;7.60;;
53765;SDS011;39682;51.490;7.310;2023-03-21T06:40:47;14.55;;;6.88;;
53765;SDS011;39682;51.490;7.310;2023-03-21T06:43:13;12.00;;;6.13;;
53765;SDS011;39682;51.490;7.310;2023-03-21T06:45:40;18.83;;;7.03;;
53765;SDS011;39682;51.490;7.310;2023-03-21T06:48:06;16.23;;;6.70;;
53765;SDS011;39682;51.490;7.310;2023-03-21T06:50:32;17.00;;;7.55;;
53765;SDS011;39682;51.490;7.310;2023-03-21T06:52:58;17.95;;;7.30;;
53765;SDS011;39682;51.490;7.310;2023-03-21T06:55:25;16.27;;;6.45;;
53765;SDS011;39682;51.490;7.310;2023-03-21T06:57:52;14.48;;;6.00;;
53765;SDS011;39682;51.490;7.310;2023-03-21T07:00:18;13.23;;;6.82;;
53765;SDS011;39682;51.490;7.310;2023-03-21T07:02:45;18.10;;;7.95;;
53765;SDS011;39682;51.490;7.310;2023-03-21T07:05:11;15.15;;;6.82;;
53765;SDS011;39682;51.490;7.310;2023-03-21T07:07:37;15.23;;;7.28;;
53765;SDS011;39682;51.490;7.310;2023-03-21T07:10:03;14.80;;;6.65;;
53765;SDS011;39682;51.490;7.310;2023-03-21T07:12:30;14.60;;;6.40;;
53765;SDS011;39682;51.490;7.310;2023-03-21T07:15:00;15.52;;;6.88;;
53765;SDS011;39682;51.490;7.310;2023-03-21T07:17:26;11.98;;;6.55;;
53765;SDS011;39682;51.490;7.310;2023-03-21T07:19:52;16.83;;;7.00;;
53765;SDS011;39682;51.490;7.310;2023-03-21T07:22:18;19.30;;;7.53;;
53765;SDS011;39682;51.490;7.310;2023-03-21T07:24:45;12.63;;;6.55;;
53765;SDS011;39682;51.490;7.310;2023-03-21T07:27:14;12.18;;;5.28;;
53765;SDS011;39682;51.490;7.310;2023-03-21T07:29:40;13.88;;;5.85;;
53765;SDS011;39682;51.490;7.310;2023-03-21T07:32:08;16.45;;;6.47;;
53765;SDS011;39682;51.490;7.310;2023-03-21T07:34:34;15.80;;;6.30;;
53765;SDS011;39682;51.490;7.310;2023-03-21T07:37:00;10.13;;;5.90;;
53765;SDS011;39682;51.490;7.310;2023-03-21T07:39:26;15.02;;;6.18;;
53765;SDS011;39682;51.490;7.310;2023-03-21T07:41:53;17.40;;;6.15;;
53765;SDS011;39682;51.490;7.310;2023-03-21T07:44:23;11.52;;;5.90;;
53765;SDS011;39682;51.490;7.310;2023-03-21T07:46:49;14.23;;;5.28;;
53765;SDS011;39682;51.490;7.310;2023-03-21T07:49:15;9.90;;;5.63;;
53765;SDS011;39682;51.490;7.310;2023-03-21T07:51:41;15.38;;;6.15;;
53765;SDS011;39682;51.490;7.310;2023-03-21T07:54:07;16.10;;;6.57;;
53765;SDS011;39682;51.490;7.310;2023-03-21T07:56:33;17.40;;;6.80;;
53765;SDS011;39682;51.490;7.310;2023-03-21T07:59:00;18.02;;;8.30;;
53765;SDS011;39682;51.490;7.310;2023-03-21T08:01:26;15.82;;;6.50;;
53765;SDS011;39682;51.490;7.310;2023-03-21T08:03:52;13.75;;;6.15;;
53765;SDS011;39682;51.490;7.310;2023-03-21T08:06:21;12.13;;;6.03;;
53765;SDS011;39682;51.490;7.310;2023-03-21T08:08:47;14.65;;;5.57;;
53765;SDS011;39682;51.490;7.310;2023-03-21T08:11:14;15.25;;;7.18;;
53765;SDS011;39682;51.490;7.310;2023-03-21T08:13:40;10.45;;;5.30;;
53765;SDS011;39682;51.490;7.310;2023-03-21T08:16:06;14.07;;;6.13;;
53765;SDS011;39682;51.490;7.310;2023-03-21T08:18:32;9.85;;;5.55;;
53765;SDS011;39682;51.490;7.310;2023-03-21T08:20:58;15.10;;;6.40;;
53765;SDS011;39682;51.490;7.310;2023-03-21T08:23:24;16.58;;;6.93;;
53765;SDS011;39682;51.490;7.310;2023-03-21T08:25:51;10.85;;;5.63;;
53765;SDS011;39682;51.490;7.310;2023-03-21T08:28:17;11.18;;;5.75;;
53765;SDS011;39682;51.490;7.310;2023-03-21T08:30:43;14.02;;;6.70;;
53765;SDS011;39682;51.490;7.310;2023-03-21T08:33:10;11.82;;;5.57;;
53765;SDS011;39682;51.490;7.310;2023-03-21T08:35:37;12.43;;;5.30;;
53765;SDS011;39682;51.490;7.310;2023-03-21T08:38:03;11.45;;;5.80;;
53765;SDS011;39682;51.490;7.310;2023-03-21T08:40:29;10.98;;;6.40;;
53765;SDS011;39682;51.490;7.310;2023-03-21T08:42:55;14.73;;;5.18;;
53765;SDS011;39682;51.490;7.310;2023-03-21T08:45:21;11.23;;;4.40;;
53765;SDS011;39682;51.490;7.310;2023-03-21T08:47:48;11.52;;;5.10;;
53765;SDS011;39682;51.490;7.310;2023-03-21T08:50:15;11.77;;;4.97;;
53765;SDS011;39682;51.490;7.310;2023-03-21T08:52:42;14.98;;;6.43;;
53765;SDS011;39682;51.490;7.310;2023-03-21T08:55:08;11.40;;;5.43;;
53765;SDS011;39682;51.490;7.310;2023-03-21T08:57:34;13.63;;;6.40;;
53765;SDS011;39682;51.490;7.310;2023-03-21T09:00:00;13.77;;;4.47;;
53765;SDS011;39682;51.490;7.310;2023-03-21T09:02:31;9.52;;;5.03;;
53765;SDS011;39682;51.490;7.310;2023-03-21T09:04:57;10.90;;;5.45;;
53765;SDS011;39682;51.490;7.310;2023-03-21T09:07:23;10.27;;;5.50;;
53765;SDS011;39682;51.490;7.310;2023-03-21T09:09:50;17.17;;;5.93;;
53765;SDS011;39682;51.490;7.310;2023-03-21T09:12:17;11.75;;;4.88;;
53765;SDS011;39682;51.490;7.310;2023-03-21T09:14:43;12.15;;;5.63;;
53765;SDS011;39682;51.490;7.310;2023-03-21T09:17:09;9.95;;;5.05;;
53765;SDS011;39682;51.490;7.310;2023-03-21T09:19:35;11.43;;;6.47;;
53765;SDS011;39682;51.490;7.310;2023-03-21T09:22:02;14.02;;;5.03;;
53765;SDS011;39682;51.490;7.310;2023-03-21T09:24:28;11.20;;;5.30;;
53765;SDS011;39682;51.490;7.310;2023-03-21T09:26:55;8.18;;;5.00;;
53765;SDS011;39682;51.490;7.310;2023-03-21T09:29:22;13.98;;;7.53;;
53765;SDS011;39682;51.490;7.310;2023-03-21T09:31:49;15.40;;;7.15;;
53765;SDS011;39682;51.490;7.310;2023-03-21T09:34:17;13.02;;;7.60;;
53765;SDS011;39682;51.490;7.310;2023-03-21T09:36:43;12.55;;;7.00;;
53765;SDS011;39682;51.490;7.310;2023-03-21T09:39:12;15.40;;;6.57;;
53765;SDS011;39682;51.490;7.310;2023-03-21T09:50:16;14.40;;;6.85;;
53765;SDS011;39682;51.490;7.310;2023-03-21T09:52:49;11.07;;;6.30;;
53765;SDS011;39682;51.490;7.310;2023-03-21T09:55:21;12.25;;;5.90;;
53765;SDS011;39682;51.490;7.310;2023-03-21T09:57:54;13.60;;;6.20;;
53765;SDS011;39682;51.490;7.310;2023-03-21T10:00:26;9.65;;;5.63;;
53765;SDS011;39682;51.490;7.310;2023-03-21T10:02:55;10.45;;;5.28;;
53765;SDS011;39682;51.490;7.310;2023-03-21T10:05:25;10.52;;;5.63;;
53765;SDS011;39682;51.490;7.310;2023-03-21T10:07:53;12.15;;;5.63;;
53765;SDS011;39682;51.490;7.310;2023-03-21T10:10:26;10.38;;;5.40;;
53765;SDS011;39682;51.490;7.310;2023-03-21T10:12:54;10.48;;;4.97;;
53765;SDS011;39682;51.490;7.310;2023-03-21T10:15:21;8.27;;;4.95;;
53765;SDS011;39682;51.490;7.310;2023-03-21T10:17:54;8.75;;;4.18;;
53765;SDS011;39682;51.490;7.310;2023-03-21T10:20:23;10.88;;;4.75;;
53765;SDS011;39682;51.490;7.310;2023-03-21T10:22:50;9.77;;;4.05;;
53765;SDS011;39682;51.490;7.310;2023-03-21T10:25:24;9.07;;;3.90;;
53765;SDS011;39682;51.490;7.310;2023-03-21T10:27:55;7.20;;;3.78;;
53765;SDS011;39682;51.490;7.310;2023-03-21T10:30:25;10.00;;;3.95;;
53765;SDS011;39682;51.490;7.310;2023-03-21T10:32:53;8.93;;;4.07;;
53765;SDS011;39682;51.490;7.310;2023-03-21T10:35:20;8.25;;;3.63;;
53765;SDS011;39682;51.490;7.310;2023-03-21T10:37:46;7.07;;;3.20;;
53765;SDS011;39682;51.490;7.310;2023-03-21T10:40:13;8.35;;;3.88;;
53765;SDS011;39682;51.490;7.310;2023-03-21T10:42:40;11.15;;;3.45;;
53765;SDS011;39682;51.490;7.310;2023-03-21T10:45:12;10.65;;;2.90;;
53765;SDS011;39682;51.490;7.310;2023-03-21T10:47:39;9.35;;;3.35;;
53765;SDS011;39682;51.490;7.310;2023-03-21T10:50:05;6.82;;;3.70;;
53765;SDS011;39682;51.490;7.310;2023-03-21T10:52:32;9.48;;;4.18;;
53765;SDS011;39682;51.490;7.310;2023-03-21T10:55:15;9.00;;;3.15;;
53765;SDS011;39682;51.490;7.310;2023-03-21T10:57:42;7.28;;;3.05;;
53765;SDS011;39682;51.490;7.310;2023-03-21T11:00:10;6.20;;;3.28;;
53765;SDS011;39682;51.490;7.310;2023-03-21T11:02:45;7.05;;;2.80;;
53765;SDS011;39682;51.490;7.310;2023-03-21T11:05:20;7.15;;;2.88;;
53765;SDS011;39682;51.490;7.310;2023-03-21T11:07:47;6.90;;;2.55;;
53765;SDS011;39682;51.490;7.310;2023-03-21T11:10:35;9.23;;;3.03;;
53765;SDS011;39682;51.490;7.310;2023-03-21T11:13:05;6.82;;;2.55;;
53765;SDS011;39682;51.490;7.310;2023-03-21T11:15:45;5.35;;;3.05;;
53765;SDS011;39682;51.490;7.310;2023-03-21T11:18:20;7.28;;;2.70;;
53765;SDS011;39682;51.490;7.310;2023-03-21T11:20:48;4.85;;;2.72;;
53765;SDS011;39682;51.490;7.310;2023-03-21T11:23:14;11.65;;;3.70;;
53765;SDS011;39682;51.490;7.310;2023-03-21T11:25:40;7.55;;;2.85;;
53765;SDS011;39682;51.490;7.310;2023-03-21T11:28:14;8.73;;;3.50;;
53765;SDS011;39682;51.490;7.310;2023-03-21T11:30:54;6.63;;;2.97;;
53765;SDS011;39682;51.490;7.310;2023-03-21T11:33:21;7.78;;;2.85;;
53765;SDS011;39682;51.490;7.310;2023-03-21T11:35:57;7.07;;;2.72;;
53765;SDS011;39682;51.490;7.310;2023-03-21T11:38:24;8.18;;;2.65;;
53765;SDS011;39682;51.490;7.310;2023-03-21T11:40:52;6.47;;;2.58;;
53765;SDS011;39682;51.490;7.310;2023-03-21T11:48:29;8.80;;;2.77;;
53765;SDS011;39682;51.490;7.310;2023-03-21T11:56:41;4.82;;;2.25;;
53765;SDS011;39682;51.490;7.310;2023-03-21T12:01:53;5.38;;;2.35;;
53765;SDS011;39682;51.490;7.310;2023-03-21T12:06:59;5.93;;;2.75;;
53765;SDS011;39682;51.490;7.310;2023-03-21T12:09:46;6.78;;;2.85;;
53765;SDS011;39682;51.490;7.310;2023-03-21T12:14:55;5.28;;;1.98;;
53765;SDS011;39682;51.490;7.310;2023-03-21T12:20:25;3.55;;;1.80;;
53765;SDS011;39682;51.490;7.310;2023-03-21T12:25:35;4.78;;;1.90;;
53765;SDS011;39682;51.490;7.310;2023-03-21T12:33:18;5.00;;;2.15;;
53765;SDS011;39682;51.490;7.310;2023-03-21T12:43:20;5.28;;;2.03;;
53765;SDS011;39682;51.490;7.310;2023-03-21T12:45:49;5.07;;;2.28;;
53765;SDS011;39682;51.490;7.310;2023-03-21T12:48:18;5.18;;;2.33;;
53765;SDS011;39682;51.490;7.310;2023-03-21T12:50:46;5.93;;;2.63;;
53765;SDS011;39682;51.490;7.310;2023-03-21T12:55:43;6.18;;;2.85;;
53765;SDS011;39682;51.490;7.310;2023-03-21T12:58:17;5.68;;;2.20;;
53765;SDS011;39682;51.490;7.310;2023-03-21T13:00:52;4.40;;;2.28;;
53765;SDS011;39682;51.490;7.310;2023-03-21T13:03:20;7.10;;;2.35;;
53765;SDS011;39682;51.490;7.310;2023-03-21T13:06:01;4.93;;;2.38;;
53765;SDS011;39682;51.490;7.310;2023-03-21T13:08:38;7.28;;;2.95;;
53765;SDS011;39682;51.490;7.310;2023-03-21T13:11:06;8.48;;;3.05;;
53765;SDS011;39682;51.490;7.310;2023-03-21T13:13:37;9.02;;;3.65;;
53765;SDS011;39682;51.490;7.310;2023-03-21T13:21:15;3.78;;;2.13;;
53765;SDS011;39682;51.490;7.310;2023-03-21T13:23:54;5.65;;;2.47;;
53765;SDS011;39682;51.490;7.310;2023-03-21T13:26:20;6.95;;;2.20;;
53765;SDS011;39682;51.490;7.310;2023-03-21T13:28:56;6.47;;;2.42;;
53765;SDS011;39682;51.490;7.310;2023-03-21T13:31:25;4.55;;;2.70;;
53765;SDS011;39682;51.490;7.310;2023-03-21T13:33:57;4.60;;;2.42;;
53765;SDS011;39682;51.490;7.310;2023-03-21T13:36:24;6.13;;;2.30;;
53765;SDS011;39682;51.490;7.310;2023-03-21T13:38:52;6.95;;;3.05;;
53765;SDS011;39682;51.490;7.310;2023-03-21T13:41:29;7.55;;;2.75;;
53765;SDS011;39682;51.490;7.310;2023-03-21T13:44:05;4.13;;;2.40;;
53765;SDS011;39682;51.490;7.310;2023-03-21T13:49:01;4.78;;;2.03;;
53765;SDS011;39682;51.490;7.310;2023-03-21T13:56:25;7.00;;;2.30;;
53765;SDS011;39682;51.490;7.310;2023-03-21T13:58:58;5.00;;;2.30;;
53765;SDS011;39682;51.490;7.310;2023-03-21T14:01:34;5.97;;;2.72;;
53765;SDS011;39682;51.490;7.310;2023-03-21T14:04:19;4.53;;;1.92;;
53765;SDS011;39682;51.490;7.310;2023-03-21T14:06:50;4.85;;;2.22;;
53765;SDS011;39682;51.490;7.310;2023-03-21T14:09:27;3.33;;;2.42;;
53765;SDS011;39682;51.490;7.310;2023-03-21T14:11:53;4.13;;;1.70;;
53765;SDS011;39682;51.490;7.310;2023-03-21T14:14:20;4.85;;;1.75;;
53765;SDS011;39682;51.490;7.310;2023-03-21T14:16:47;6.40;;;2.17;;
53765;SDS011;39682;51.490;7.310;2023-03-21T14:19:13;3.17;;;1.60;;
53765;SDS011;39682;51.490;7.310;2023-03-21T14:21:45;3.33;;;1.70;;
53765;SDS011;39682;51.490;7.310;2023-03-21T14:24:12;3.53;;;1.77;;
53765;SDS011;39682;51.490;7.310;2023-03-21T14:27:11;3.33;;;1.70;;
53765;SDS011;39682;51.490;7.310;2023-03-21T14:29:33;5.03;;;2.17;;
53765;SDS011;39682;51.490;7.310;2023-03-21T14:32:00;5.13;;;1.50;;
53765;SDS011;39682;51.490;7.310;2023-03-21T14:34:27;4.40;;;2.10;;
53765;SDS011;39682;51.490;7.310;2023-03-21T14:36:54;8.05;;;2.50;;
53765;SDS011;39682;51.490;7.310;2023-03-21T14:39:25;3.67;;;1.65;;
53765;SDS011;39682;51.490;7.310;2023-03-21T14:41:53;5.15;;;1.80;;
53765;SDS011;39682;51.490;7.310;2023-03-21T14:46:49;7.00;;;1.55;;
53765;SDS011;39682;51.490;7.310;2023-03-21T14:49:20;6.05;;;2.55;;
53765;SDS011;39682;51.490;7.310;2023-03-21T14:51:46;2.83;;;1.88;;
53765;SDS011;39682;51.490;7.310;2023-03-21T14:54:14;5.85;;;2.20;;
53765;SDS011;39682;51.490;7.310;2023-03-21T14:56:44;5.03;;;2.28;;
53765;SDS011;39682;51.490;7.310;2023-03-21T14:59:12;6.53;;;1.95;;
53765;SDS011;39682;51.490;7.310;2023-03-21T15:01:39;4.32;;;2.00;;
53765;SDS011;39682;51.490;7.310;2023-03-21T15:04:05;4.40;;;2.10;;
53765;SDS011;39682;51.490;7.310;2023-03-21T15:06:32;3.70;;;2.13;;
53765;SDS011;39682;51.490;7.310;2023-03-21T15:09:01;4.80;;;2.05;;
53765;SDS011;39682;51.490;7.310;2023-03-21T15:11:31;5.05;;;2.58;;
53765;SDS011;39682;51.490;7.310;2023-03-21T15:13:59;5.75;;;2.42;;
53765;SDS011;39682;51.490;7.310;2023-03-21T15:16:26;4.80;;;2.42;;
53765;SDS011;39682;51.490;7.310;2023-03-21T15:18:52;3.15;;;2.42;;
53765;SDS011;39682;51.490;7.310;2023-03-21T15:21:20;3.33;;;2.28;;
53765;SDS011;39682;51.490;7.310;2023-03-21T15:23:47;4.60;;;2.55;;
53765;SDS011;39682;51.490;7.310;2023-03-21T15:26:14;3.55;;;2.05;;
53765;SDS011;39682;51.490;7.310;2023-03-21T15:28:41;3.95;;;2.42;;
53765;SDS011;39682;51.490;7.310;2023-03-21T15:31:14;4.03;;;2.58;;
53765;SDS011;39682;51.490;7.310;2023-03-21T15:33:40;4.85;;;2.78;;
53765;SDS011;39682;51.490;7.310;2023-03-21T15:36:09;3.17;;;2.03;;
53765;SDS011;39682;51.490;7.310;2023-03-21T15:38:37;6.97;;;2.50;;
53765;SDS011;39682;51.490;7.310;2023-03-21T15:43:42;5.15;;;2.50;;
53765;SDS011;39682;51.490;7.310;2023-03-21T15:46:14;3.15;;;1.90;;
53765;SDS011;39682;51.490;7.310;2023-03-21T15:48:41;5.32;;;2.17;;
53765;SDS011;39682;51.490;7.310;2023-03-21T15:51:10;5.00;;;2.00;;
53765;SDS011;39682;51.490;7.310;2023-03-21T15:53:39;3.65;;;1.90;;
53765;SDS011;39682;51.490;7.310;2023-03-21T15:56:08;4.03;;;2.10;;
53765;SDS011;39682;51.490;7.310;2023-03-21T15:58:40;2.97;;;1.90;;
53765;SDS011;39682;51.490;7.310;2023-03-21T16:01:15;5.22;;;2.10;;
53765;SDS011;39682;51.490;7.310;2023-03-21T16:03:43;5.82;;;2.75;;
53765;SDS011;39682;51.490;7.310;2023-03-21T16:06:16;5.05;;;2.45;;
53765;SDS011;39682;51.490;7.310;2023-03-21T16:08:47;5.00;;;2.33;;
53765;SDS011;39682;51.490;7.310;2023-03-21T16:13:44;6.65;;;2.33;;
53765;SDS011;39682;51.490;7.310;2023-03-21T16:16:18;4.05;;;2.85;;
53765;SDS011;39682;51.490;7.310;2023-03-21T16:18:45;10.63;;;3.45;;
53765;SDS011;39682;51.490;7.310;2023-03-21T16:21:12;4.82;;;2.70;;
53765;SDS011;39682;51.490;7.310;2023-03-21T16:23:38;3.00;;;2.05;;
53765;SDS011;39682;51.490;7.310;2023-03-21T16:26:05;4.43;;;2.30;;